createdAt,value
2018-05-03T00:00:57.984Z,7.90
2018-05-03T00:01:58.027Z,7.50
2018-05-03T00:02:57.984Z,8.20
2018-05-03T00:03:57.994Z,8.30
2018-05-03T00:04:58.005Z,7.60
2018-05-03T00:05:57.996Z,7.90
2018-05-03T00:06:57.998Z,8.00
2018-05-03T00:07:57.993Z,7.80
2018-05-03T00:08:57.996Z,7.90
2018-05-03T00:09:58.004Z,8.10
2018-05-03T00:10:58.031Z,7.90
2018-05-03T00:11:58.015Z,7.70
2018-05-03T00:12:58.029Z,7.90
2018-05-03T00:13:58.026Z,7.90
2018-05-03T00:14:58.012Z,7.70
2018-05-03T00:15:58.017Z,7.80
2018-05-03T00:16:58.009Z,7.40
2018-05-03T00:17:58.017Z,7.90
2018-05-03T00:18:58.024Z,8.70
2018-05-03T00:19:58.015Z,8.40
2018-05-03T00:20:58.032Z,7.60
2018-05-03T00:21:58.038Z,8.30
2018-05-03T00:22:58.026Z,8.30
2018-05-03T00:23:58.033Z,8.50
2018-05-03T00:24:58.022Z,8.00
2018-05-03T00:25:58.022Z,8.20
2018-05-03T00:26:58.059Z,7.90
2018-05-03T00:27:58.039Z,8.60
2018-05-03T00:28:58.049Z,8.50
2018-05-03T00:29:58.053Z,9.00
2018-05-03T00:30:58.037Z,13.00
2018-05-03T00:31:58.040Z,9.00
2018-05-03T00:32:58.058Z,8.60
2018-05-03T00:33:58.063Z,8.30
2018-05-03T00:34:58.055Z,8.30
2018-05-03T00:35:58.066Z,8.20
2018-05-03T00:36:58.046Z,8.30
2018-05-03T00:37:58.056Z,8.40
2018-05-03T00:38:58.046Z,8.50
2018-05-03T00:39:58.056Z,8.70
2018-05-03T00:40:58.069Z,8.40
2018-05-03T00:41:58.763Z,9.10
2018-05-03T00:42:58.062Z,8.50
2018-05-03T00:43:58.063Z,8.30
2018-05-03T00:44:58.064Z,8.50
2018-05-03T00:45:58.058Z,8.40
2018-05-03T00:46:58.059Z,7.90
2018-05-03T00:47:58.076Z,8.50
2018-05-03T00:48:58.091Z,8.70
2018-05-03T00:49:58.084Z,9.30
2018-05-03T00:50:58.071Z,8.30
2018-05-03T00:51:58.076Z,8.00
2018-05-03T00:52:58.077Z,8.40
2018-05-03T00:53:58.079Z,8.50
2018-05-03T00:54:58.148Z,8.50
2018-05-03T00:55:58.094Z,8.30
2018-05-03T00:56:58.096Z,8.70
2018-05-03T00:57:58.091Z,8.10
2018-05-03T00:58:58.110Z,8.60
2018-05-03T00:59:58.091Z,8.40
2018-05-03T01:00:58.090Z,8.80
2018-05-03T01:01:58.118Z,8.00
2018-05-03T01:02:58.101Z,8.20
2018-05-03T01:03:58.106Z,8.10
2018-05-03T01:04:58.099Z,8.00
2018-05-03T01:05:58.132Z,7.60
2018-05-03T01:06:58.096Z,8.20
2018-05-03T01:07:58.215Z,8.40
2018-05-03T01:08:58.108Z,8.10
2018-05-03T01:09:58.105Z,9.80
2018-05-03T01:10:58.111Z,8.40
2018-05-03T01:11:58.115Z,8.70
2018-05-03T01:12:58.109Z,8.50
2018-05-03T01:13:58.111Z,8.30
2018-05-03T01:14:58.147Z,9.00
2018-05-03T01:15:58.119Z,9.30
2018-05-03T01:16:58.120Z,8.80
2018-05-03T01:17:58.124Z,8.40
2018-05-03T01:18:58.143Z,8.80
2018-05-03T01:19:58.130Z,8.10
2018-05-03T01:20:58.148Z,8.60
2018-05-03T01:21:58.132Z,8.50
2018-05-03T01:22:58.138Z,8.30
2018-05-03T01:23:58.169Z,8.70
2018-05-03T01:24:58.129Z,8.50
2018-05-03T01:25:58.135Z,8.60
2018-05-03T01:26:58.142Z,8.30
2018-05-03T01:27:58.144Z,8.30
2018-05-03T01:28:58.136Z,8.20
2018-05-03T01:29:58.137Z,8.40
2018-05-03T01:30:58.168Z,8.60
2018-05-03T01:31:58.198Z,7.60
2018-05-03T01:32:58.140Z,8.70
2018-05-03T01:33:58.145Z,8.70
2018-05-03T01:34:58.163Z,9.20
2018-05-03T01:35:58.154Z,9.40
2018-05-03T01:36:58.150Z,9.20
2018-05-03T01:37:58.150Z,9.40
2018-05-03T01:38:58.241Z,9.50
2018-05-03T01:39:58.156Z,8.80
2018-05-03T01:40:58.154Z,9.00
2018-05-03T01:41:58.182Z,9.40
2018-05-03T01:42:58.176Z,8.80
2018-05-03T01:43:58.166Z,9.10
2018-05-03T01:44:58.160Z,9.10
2018-05-03T01:45:58.209Z,9.40
2018-05-03T01:46:58.184Z,9.30
2018-05-03T01:47:58.177Z,8.90
2018-05-03T01:48:58.171Z,9.50
2018-05-03T01:49:58.184Z,8.80
2018-05-03T01:50:58.172Z,9.30
2018-05-03T01:51:58.185Z,9.20
2018-05-03T01:52:58.180Z,9.30
2018-05-03T01:53:58.217Z,8.60
2018-05-03T01:54:58.183Z,9.30
2018-05-03T01:55:58.178Z,10.00
2018-05-03T01:56:58.204Z,9.10
2018-05-03T01:57:58.186Z,9.30
2018-05-03T01:58:58.208Z,9.80
2018-05-03T01:59:58.212Z,8.80
2018-05-03T02:00:58.793Z,9.50
2018-05-03T02:01:58.790Z,9.70
2018-05-03T02:02:58.198Z,8.90
2018-05-03T02:03:58.217Z,9.10
2018-05-03T02:04:58.203Z,9.40
2018-05-03T02:05:58.204Z,9.20
2018-05-03T02:06:58.203Z,9.30
2018-05-03T02:07:58.198Z,9.40
2018-05-03T02:08:58.201Z,9.20
2018-05-03T02:09:58.202Z,9.40
2018-05-03T02:10:58.202Z,9.20
2018-05-03T02:11:58.222Z,9.30
2018-05-03T02:12:58.221Z,9.20
2018-05-03T02:13:58.213Z,9.30
2018-05-03T02:14:58.212Z,9.60
2018-05-03T02:15:58.239Z,10.30
2018-05-03T02:16:58.213Z,9.50
2018-05-03T02:17:58.312Z,9.70
2018-05-03T02:18:58.281Z,10.00
2018-05-03T02:19:58.223Z,9.60
2018-05-03T02:20:58.249Z,9.80
2018-05-03T02:21:58.222Z,10.50
2018-05-03T02:22:58.239Z,10.00
2018-05-03T02:23:58.238Z,10.60
2018-05-03T02:24:58.235Z,9.80
2018-05-03T02:25:58.236Z,10.10
2018-05-03T02:26:58.259Z,9.90
2018-05-03T02:27:58.235Z,8.90
2018-05-03T02:28:58.235Z,10.20
2018-05-03T02:29:58.242Z,9.90
2018-05-03T02:30:58.237Z,9.60
2018-05-03T02:31:58.245Z,9.80
2018-05-03T02:32:58.246Z,10.40
2018-05-03T02:33:58.234Z,9.80
2018-05-03T02:34:58.238Z,10.10
2018-05-03T02:35:58.268Z,11.00
2018-05-03T02:36:58.255Z,10.00
2018-05-03T02:37:58.259Z,10.60
2018-05-03T02:38:58.252Z,11.30
2018-05-03T02:39:58.255Z,9.80
2018-05-03T02:40:58.254Z,10.30
2018-05-03T02:41:58.250Z,10.00
2018-05-03T02:42:58.257Z,10.20
2018-05-03T02:43:58.263Z,10.80
2018-05-03T02:44:58.307Z,10.90
2018-05-03T02:45:58.268Z,10.70
2018-05-03T02:46:58.270Z,11.40
2018-05-03T02:47:58.286Z,11.40
2018-05-03T02:48:58.258Z,11.50
2018-05-03T02:49:58.338Z,11.30
2018-05-03T02:50:58.322Z,11.50
2018-05-03T02:51:58.265Z,11.00
2018-05-03T02:52:58.307Z,11.10
2018-05-03T02:53:58.269Z,10.40
2018-05-03T02:54:58.278Z,10.90
2018-05-03T02:55:58.281Z,11.30
2018-05-03T02:56:58.306Z,11.00
2018-05-03T02:57:58.301Z,10.80
2018-05-03T02:58:58.281Z,10.50
2018-05-03T02:59:58.304Z,11.80
2018-05-03T03:00:58.312Z,11.50
2018-05-03T03:01:58.279Z,10.70
2018-05-03T03:02:58.294Z,11.40
2018-05-03T03:03:58.298Z,10.80
2018-05-03T03:04:58.290Z,11.60
2018-05-03T03:05:58.315Z,12.00
2018-05-03T03:06:58.296Z,12.00
2018-05-03T03:07:58.301Z,11.90
2018-05-03T03:08:58.332Z,12.00
2018-05-03T03:09:58.302Z,12.40
2018-05-03T03:10:58.304Z,12.00
2018-05-03T03:11:58.301Z,12.50
2018-05-03T03:12:58.304Z,11.90
2018-05-03T03:13:58.301Z,12.70
2018-05-03T03:14:58.306Z,12.20
2018-05-03T03:15:58.309Z,13.10
2018-05-03T03:16:58.326Z,11.70
2018-05-03T03:17:58.324Z,11.80
2018-05-03T03:18:58.319Z,14.10
2018-05-03T03:19:58.321Z,12.20
2018-05-03T03:20:58.312Z,13.30
2018-05-03T03:21:58.355Z,13.10
2018-05-03T03:22:58.343Z,12.80
2018-05-03T03:23:58.321Z,12.60
2018-05-03T03:24:58.324Z,13.30
2018-05-03T03:25:58.325Z,12.90
2018-05-03T03:26:58.324Z,12.30
2018-05-03T03:27:58.343Z,13.40
2018-05-03T03:28:58.326Z,12.60
2018-05-03T03:29:58.344Z,13.20
2018-05-03T03:30:58.369Z,12.90
2018-05-03T03:31:58.338Z,13.80
2018-05-03T03:32:58.340Z,14.10
2018-05-03T03:33:58.356Z,12.70
2018-05-03T03:34:58.355Z,13.60
2018-05-03T03:35:58.360Z,12.80
2018-05-03T03:36:58.341Z,12.40
2018-05-03T03:37:58.344Z,13.10
2018-05-03T03:38:58.349Z,12.80
2018-05-03T03:39:58.347Z,12.80
2018-05-03T03:40:58.345Z,12.90
2018-05-03T03:41:58.346Z,13.00
2018-05-03T03:42:58.358Z,13.30
2018-05-03T03:43:58.370Z,14.00
2018-05-03T03:44:58.356Z,14.00
2018-05-03T03:45:58.365Z,13.50
2018-05-03T03:46:58.357Z,13.20
2018-05-03T03:47:58.411Z,13.30
2018-05-03T03:48:58.368Z,14.10
2018-05-03T03:49:58.374Z,13.50
2018-05-03T03:50:58.365Z,14.50
2018-05-03T03:51:58.373Z,14.10
2018-05-03T03:52:58.364Z,14.80
2018-05-03T03:53:58.370Z,14.40
2018-05-03T03:54:58.412Z,13.90
2018-05-03T03:55:58.412Z,14.50
2018-05-03T03:56:58.389Z,14.20
2018-05-03T03:57:58.434Z,14.00
2018-05-03T03:58:58.459Z,14.40
2018-05-03T03:59:58.388Z,13.30
2018-05-03T04:00:58.379Z,13.90
2018-05-03T04:01:58.383Z,13.90
2018-05-03T04:02:58.384Z,15.00
2018-05-03T04:03:58.383Z,14.60
2018-05-03T04:04:58.391Z,15.80
2018-05-03T04:05:58.395Z,15.50
2018-05-03T04:06:58.398Z,15.10
2018-05-03T04:07:58.398Z,15.40
2018-05-03T04:08:58.413Z,15.70
2018-05-03T04:09:58.397Z,15.90
2018-05-03T04:10:58.443Z,15.60
2018-05-03T04:11:58.431Z,16.60
2018-05-03T04:12:58.448Z,16.60
2018-05-03T04:13:58.401Z,17.10
2018-05-03T04:14:58.404Z,17.00
2018-05-03T04:15:58.418Z,17.70
2018-05-03T04:16:58.421Z,17.50
2018-05-03T04:17:58.420Z,17.70
2018-05-03T04:18:58.409Z,17.60
2018-05-03T04:19:58.410Z,18.70
2018-05-03T04:20:58.412Z,18.80
2018-05-03T04:21:58.430Z,19.40
2018-05-03T04:22:58.415Z,18.60
2018-05-03T04:23:59.320Z,19.90
2018-05-03T04:24:58.420Z,20.00
2018-05-03T04:25:58.436Z,20.40
2018-05-03T04:26:58.453Z,21.40
2018-05-03T04:27:58.434Z,23.10
2018-05-03T04:28:58.429Z,22.60
2018-05-03T04:29:58.446Z,23.70
2018-05-03T04:30:58.460Z,24.00
2018-05-03T04:31:59.325Z,24.90
2018-05-03T04:32:58.434Z,23.10
2018-05-03T04:33:58.476Z,25.40
2018-05-03T04:34:58.435Z,23.30
2018-05-03T04:35:58.460Z,25.30
2018-05-03T04:36:59.329Z,24.90
2018-05-03T04:37:58.451Z,26.40
2018-05-03T04:38:58.446Z,25.20
2018-05-03T04:39:58.451Z,25.60
2018-05-03T04:40:58.448Z,26.20
2018-05-03T04:41:59.334Z,26.60
2018-05-03T04:42:58.486Z,26.20
2018-05-03T04:43:58.457Z,27.10
2018-05-03T04:44:58.451Z,26.00
2018-05-03T04:45:58.486Z,26.00
2018-05-03T04:46:58.518Z,26.30
2018-05-03T04:47:58.507Z,25.80
2018-05-03T04:48:58.459Z,26.10
2018-05-03T04:49:58.464Z,24.90
2018-05-03T04:50:58.481Z,24.10
2018-05-03T04:51:58.465Z,23.00
2018-05-03T04:52:58.495Z,22.20
2018-05-03T04:53:58.469Z,22.50
2018-05-03T04:54:59.331Z,21.00
2018-05-03T04:55:58.497Z,20.80
2018-05-03T04:56:58.480Z,19.50
2018-05-03T04:57:58.469Z,19.00
2018-05-03T04:58:58.473Z,21.30
2018-05-03T04:59:58.478Z,20.00
2018-05-03T05:00:58.473Z,19.00
2018-05-03T05:01:58.481Z,19.00
2018-05-03T05:02:58.485Z,19.00
2018-05-03T05:03:58.478Z,17.30
2018-05-03T05:04:58.489Z,16.90
2018-05-03T05:05:58.485Z,17.30
2018-05-03T05:06:58.487Z,18.00
2018-05-03T05:07:58.511Z,16.70
2018-05-03T05:08:58.515Z,16.10
2018-05-03T05:09:58.501Z,16.20
2018-05-03T05:10:58.490Z,15.60
2018-05-03T05:11:58.505Z,14.80
2018-05-03T05:12:58.494Z,15.20
2018-05-03T05:13:58.498Z,16.40
2018-05-03T05:14:58.495Z,13.40
2018-05-03T05:15:58.498Z,14.20
2018-05-03T05:16:58.529Z,14.00
2018-05-03T05:17:59.363Z,13.20
2018-05-03T05:18:58.524Z,13.40
2018-05-03T05:19:58.500Z,13.00
2018-05-03T05:20:58.507Z,13.50
2018-05-03T05:21:58.499Z,13.40
2018-05-03T05:22:58.543Z,12.40
2018-05-03T05:23:58.514Z,12.80
2018-05-03T05:24:58.508Z,12.60
2018-05-03T05:25:58.535Z,11.50
2018-05-03T05:26:58.548Z,11.50
2018-05-03T05:27:58.514Z,12.20
2018-05-03T05:28:58.517Z,13.30
2018-05-03T05:29:58.519Z,12.10
2018-05-03T05:30:58.531Z,13.60
2018-05-03T05:31:58.534Z,13.90
2018-05-03T05:32:58.551Z,12.00
2018-05-03T05:33:58.524Z,12.60
2018-05-03T05:34:58.526Z,12.20
2018-05-03T05:35:58.552Z,12.10
2018-05-03T05:36:58.530Z,13.20
2018-05-03T05:37:58.538Z,12.50
2018-05-03T05:38:58.539Z,13.80
2018-05-03T05:39:58.545Z,12.00
2018-05-03T05:40:58.539Z,11.60
2018-05-03T05:41:58.535Z,12.20
2018-05-03T05:42:58.539Z,13.00
2018-05-03T05:43:58.540Z,11.70
2018-05-03T05:44:58.544Z,10.30
2018-05-03T05:45:58.544Z,12.60
2018-05-03T05:46:58.596Z,13.00
2018-05-03T05:47:58.580Z,10.00
2018-05-03T05:48:58.721Z,11.40
2018-05-03T05:49:58.601Z,11.50
2018-05-03T05:50:58.568Z,10.50
2018-05-03T05:51:58.565Z,11.40
2018-05-03T05:52:58.563Z,12.50
2018-05-03T05:53:58.575Z,13.50
2018-05-03T05:54:58.571Z,10.00
2018-05-03T05:55:58.575Z,11.60
2018-05-03T05:56:58.565Z,12.30
2018-05-03T05:57:58.576Z,10.40
2018-05-03T05:58:58.575Z,10.90
2018-05-03T05:59:58.572Z,10.60
2018-05-03T06:00:58.577Z,10.50
2018-05-03T06:01:58.585Z,10.20
2018-05-03T06:02:58.584Z,13.00
2018-05-03T06:03:58.588Z,12.90
2018-05-03T06:04:58.576Z,11.80
2018-05-03T06:05:58.592Z,10.50
2018-05-03T06:06:58.601Z,11.90
2018-05-03T06:07:58.586Z,11.60
2018-05-03T06:08:58.591Z,10.20
2018-05-03T06:09:58.596Z,11.90
2018-05-03T06:10:58.622Z,9.90
2018-05-03T06:11:58.595Z,10.20
2018-05-03T06:12:58.607Z,11.70
2018-05-03T06:13:58.604Z,8.10
2018-05-03T06:14:58.611Z,9.40
2018-05-03T06:15:58.612Z,9.90
2018-05-03T06:16:58.643Z,10.50
2018-05-03T06:17:58.619Z,12.50
2018-05-03T06:18:58.622Z,11.50
2018-05-03T06:19:58.647Z,11.30
2018-05-03T06:20:58.642Z,11.00
2018-05-03T06:21:58.623Z,9.70
2018-05-03T06:22:58.621Z,11.50
2018-05-03T06:23:58.638Z,11.00
2018-05-03T06:24:58.646Z,12.90
2018-05-03T06:25:58.690Z,10.40
2018-05-03T06:26:58.662Z,11.40
2018-05-03T06:27:58.643Z,8.50
2018-05-03T06:28:58.635Z,9.30
2018-05-03T06:29:59.365Z,8.40
2018-05-03T06:30:58.648Z,8.00
2018-05-03T06:31:58.650Z,9.80
2018-05-03T06:32:58.658Z,9.50
2018-05-03T06:33:58.656Z,8.20
2018-05-03T06:34:58.666Z,12.00
2018-05-03T06:35:58.662Z,9.20
2018-05-03T06:36:58.659Z,9.90
2018-05-03T06:37:58.754Z,9.50
2018-05-03T06:38:58.681Z,9.20
2018-05-03T06:39:58.707Z,7.70
2018-05-03T06:40:58.753Z,10.60
2018-05-03T06:41:58.826Z,7.90
2018-05-03T06:42:59.363Z,6.70
2018-05-03T06:43:58.699Z,9.80
2018-05-03T06:44:58.768Z,8.80
2018-05-03T06:45:58.708Z,6.40
2018-05-03T06:46:58.713Z,9.10
2018-05-03T06:47:58.704Z,6.50
2018-05-03T06:48:58.817Z,8.40
2018-05-03T06:49:58.734Z,8.00
2018-05-03T06:50:58.716Z,8.10
2018-05-03T06:51:58.991Z,7.50
2018-05-03T06:52:58.846Z,7.20
2018-05-03T06:53:58.736Z,7.00
2018-05-03T06:54:59.372Z,7.80
2018-05-03T06:55:58.729Z,7.60
2018-05-03T06:56:58.769Z,7.70
2018-05-03T06:57:58.748Z,6.70
2018-05-03T06:58:59.143Z,6.70
2018-05-03T06:59:58.763Z,7.70
2018-05-03T07:00:58.917Z,7.30
2018-05-03T07:01:58.765Z,6.60
2018-05-03T07:02:58.976Z,6.10
2018-05-03T07:03:58.916Z,7.90
2018-05-03T07:04:58.953Z,6.30
2018-05-03T07:05:59.384Z,6.50
2018-05-03T07:06:58.976Z,5.20
2018-05-03T07:07:58.795Z,6.20
2018-05-03T07:08:58.792Z,6.20
2018-05-03T07:09:58.817Z,5.90
2018-05-03T07:10:58.810Z,5.20
2018-05-03T07:11:58.937Z,6.70
2018-05-03T07:12:58.834Z,5.60
2018-05-03T07:13:58.957Z,7.50
2018-05-03T07:14:58.843Z,7.10
2018-05-03T07:15:58.843Z,7.70
2018-05-03T07:16:58.852Z,5.90
2018-05-03T07:17:58.861Z,7.60
2018-05-03T07:18:58.944Z,5.90
2018-05-03T07:19:58.882Z,6.50
2018-05-03T07:20:58.977Z,6.00
2018-05-03T07:21:58.895Z,9.30
2018-05-03T07:22:59.180Z,6.10
2018-05-03T07:23:59.390Z,9.70
2018-05-03T07:24:58.916Z,7.10
2018-05-03T07:25:58.915Z,6.60
2018-05-03T07:26:59.891Z,7.50
2018-05-03T07:27:58.934Z,8.70
2018-05-03T07:28:58.973Z,9.90
2018-05-03T07:29:58.953Z,5.50
2018-05-03T07:30:59.895Z,6.50
2018-05-03T07:31:58.964Z,5.60
2018-05-03T07:32:58.983Z,9.50
2018-05-03T07:33:58.981Z,7.60
2018-05-03T07:34:58.991Z,7.00
2018-05-03T07:35:59.030Z,6.70
2018-05-03T07:36:59.897Z,7.10
2018-05-03T07:37:59.044Z,7.50
2018-05-03T07:39:02.409Z,8.60
2018-05-03T07:39:59.050Z,8.30
2018-05-03T07:40:59.063Z,6.70
2018-05-03T07:41:59.041Z,8.90
2018-05-03T07:42:59.162Z,6.10
2018-05-03T07:43:59.154Z,8.00
2018-05-03T07:44:59.190Z,7.20
2018-05-03T07:45:59.100Z,6.50
2018-05-03T07:46:59.097Z,6.70
2018-05-03T07:47:59.122Z,7.80
2018-05-03T07:48:59.172Z,9.20
2018-05-03T07:49:59.904Z,7.50
2018-05-03T07:50:59.141Z,8.50
2018-05-03T07:51:59.149Z,8.30
2018-05-03T07:52:59.184Z,7.70
2018-05-03T07:53:59.654Z,8.80
2018-05-03T07:54:59.281Z,7.40
2018-05-03T07:55:59.172Z,6.20
2018-05-03T07:56:59.178Z,8.80
2018-05-03T07:57:59.229Z,7.20
2018-05-03T07:58:59.273Z,6.30
2018-05-03T07:59:59.207Z,10.50
2018-05-03T08:00:59.225Z,8.30
2018-05-03T08:01:59.235Z,7.30
2018-05-03T08:02:59.240Z,7.60
2018-05-03T08:03:59.246Z,6.80
2018-05-03T08:04:59.911Z,7.50
2018-05-03T08:05:59.273Z,7.10
2018-05-03T08:06:59.299Z,10.00
2018-05-03T08:07:59.296Z,8.30
2018-05-03T08:08:59.300Z,8.60
2018-05-03T08:09:59.307Z,9.20
2018-05-03T08:10:59.429Z,9.30
2018-05-03T08:11:59.319Z,8.90
2018-05-03T08:12:59.324Z,11.00
2018-05-03T08:13:59.341Z,11.00
2018-05-03T08:14:59.364Z,7.80
2018-05-03T08:15:59.380Z,9.00
2018-05-03T08:16:59.429Z,13.80
2018-05-03T08:18:00.536Z,9.70
2018-05-03T08:18:59.396Z,8.50
2018-05-03T08:19:59.399Z,10.60
2018-05-03T08:20:59.412Z,12.20
2018-05-03T08:21:59.523Z,9.80
2018-05-03T08:22:59.423Z,7.60
2018-05-03T08:23:59.449Z,8.00
2018-05-03T08:24:59.428Z,8.50
2018-05-03T08:25:59.454Z,7.90
2018-05-03T08:26:59.572Z,7.70
2018-05-03T08:27:59.488Z,8.40
2018-05-03T08:28:59.481Z,6.70
2018-05-03T08:29:59.511Z,8.50
2018-05-03T08:30:59.560Z,8.00
2018-05-03T08:31:59.501Z,7.30
2018-05-03T08:32:59.523Z,7.50
2018-05-03T08:33:59.545Z,11.10
2018-05-03T08:34:59.539Z,6.70
2018-05-03T08:35:59.607Z,8.40
2018-05-03T08:36:59.587Z,6.50
2018-05-03T08:37:59.632Z,8.20
2018-05-03T08:38:59.685Z,8.40
2018-05-03T08:39:59.598Z,6.90
2018-05-03T08:40:59.606Z,10.10
2018-05-03T08:41:59.649Z,7.50
2018-05-03T08:42:59.612Z,8.50
2018-05-03T08:43:59.643Z,6.20
2018-05-03T08:44:59.644Z,6.80
2018-05-03T08:45:59.733Z,8.00
2018-05-03T08:46:59.720Z,6.80
2018-05-03T08:47:59.670Z,7.70
2018-05-03T08:48:59.730Z,6.90
2018-05-03T08:49:59.756Z,8.00
2018-05-03T08:50:59.724Z,6.90
2018-05-03T08:51:59.804Z,7.50
2018-05-03T08:52:59.772Z,8.40
2018-05-03T08:53:59.760Z,8.50
2018-05-03T08:54:59.779Z,6.00
2018-05-03T08:55:59.916Z,7.80
2018-05-03T08:56:59.874Z,6.50
2018-05-03T08:57:59.808Z,6.80
2018-05-03T08:58:59.818Z,6.20
2018-05-03T08:59:59.841Z,6.10
2018-05-03T09:00:59.879Z,6.00
2018-05-03T09:02:00.278Z,7.70
2018-05-03T09:02:59.887Z,9.20
2018-05-03T09:03:59.922Z,8.30
2018-05-03T09:04:59.895Z,7.10
2018-05-03T09:05:59.959Z,7.00
2018-05-03T09:06:59.963Z,7.80
2018-05-03T09:07:59.948Z,5.80
2018-05-03T09:09:00.453Z,9.10
2018-05-03T09:10:00.011Z,6.30
2018-05-03T09:11:00.019Z,8.30
2018-05-03T09:11:59.991Z,7.00
2018-05-03T09:12:59.998Z,8.30
2018-05-03T09:14:00.027Z,7.50
2018-05-03T09:15:00.048Z,6.40
2018-05-03T09:16:00.680Z,6.70
2018-05-03T09:17:00.481Z,8.10
2018-05-03T09:18:00.439Z,8.10
2018-05-03T09:19:00.124Z,6.90
2018-05-03T09:20:00.964Z,9.50
2018-05-03T09:21:00.128Z,7.60
2018-05-03T09:22:00.187Z,7.00
2018-05-03T09:23:00.156Z,9.70
2018-05-03T09:24:00.168Z,9.40
2018-05-03T09:25:00.176Z,8.30
2018-05-03T09:26:00.222Z,6.30
2018-05-03T09:27:00.284Z,8.70
2018-05-03T09:28:00.235Z,7.40
2018-05-03T09:29:00.232Z,6.80
2018-05-03T09:30:00.331Z,6.10
2018-05-03T09:31:00.409Z,5.20
2018-05-03T09:32:00.326Z,7.70
2018-05-03T09:33:00.330Z,7.00
2018-05-03T09:34:00.292Z,6.80
2018-05-03T09:35:00.365Z,6.10
2018-05-03T09:36:00.387Z,8.10
2018-05-03T09:37:00.403Z,6.90
2018-05-03T09:38:00.360Z,5.80
2018-05-03T09:39:00.365Z,7.20
2018-05-03T09:40:00.374Z,7.20
2018-05-03T09:41:00.400Z,8.40
2018-05-03T09:42:00.399Z,5.00
2018-05-03T09:43:00.440Z,6.10
2018-05-03T09:44:00.430Z,5.60
2018-05-03T09:45:00.983Z,6.40
2018-05-03T09:46:00.481Z,5.80
2018-05-03T09:47:00.616Z,5.80
2018-05-03T09:48:00.654Z,6.20
2018-05-03T09:49:00.544Z,5.10
2018-05-03T09:50:00.582Z,5.80
2018-05-03T09:51:00.594Z,5.10
2018-05-03T09:52:00.654Z,6.50
2018-05-03T09:53:00.625Z,6.80
2018-05-03T09:54:00.782Z,5.60
2018-05-03T09:55:01.485Z,4.80
2018-05-03T09:56:00.641Z,6.00
2018-05-03T09:57:00.644Z,5.60
2018-05-03T09:58:01.490Z,5.90
2018-05-03T09:59:01.691Z,6.70
2018-05-03T10:00:00.735Z,6.80
2018-05-03T10:01:00.706Z,5.10
2018-05-03T10:02:00.717Z,6.20
2018-05-03T10:03:00.756Z,5.60
2018-05-03T10:04:00.769Z,4.50
2018-05-03T10:05:00.784Z,6.20
2018-05-03T10:06:00.773Z,6.40
2018-05-03T10:07:00.815Z,5.00
2018-05-03T10:08:00.876Z,5.00
2018-05-03T10:09:00.893Z,6.50
2018-05-03T10:10:00.904Z,4.90
2018-05-03T10:11:00.869Z,6.90
2018-05-03T10:12:00.909Z,4.70
2018-05-03T10:13:00.883Z,5.30
2018-05-03T10:14:00.938Z,5.30
2018-05-03T10:15:00.951Z,7.20
2018-05-03T10:16:00.937Z,6.60
2018-05-03T10:17:00.974Z,4.50
2018-05-03T10:18:01.105Z,6.40
2018-05-03T10:19:01.011Z,4.60
2018-05-03T10:20:01.030Z,5.90
2018-05-03T10:21:01.024Z,4.80
2018-05-03T10:22:01.106Z,5.90
2018-05-03T10:23:01.041Z,6.20
2018-05-03T10:24:01.053Z,6.30
2018-05-03T10:25:01.071Z,5.70
2018-05-03T10:26:01.097Z,6.90
2018-05-03T10:27:01.126Z,6.10
2018-05-03T10:28:01.125Z,5.50
2018-05-03T10:29:01.134Z,5.10
2018-05-03T10:30:02.191Z,7.50
2018-05-03T10:31:01.160Z,5.80
2018-05-03T10:32:01.169Z,6.50
2018-05-03T10:33:01.246Z,7.30
2018-05-03T10:34:01.211Z,4.70
2018-05-03T10:35:02.008Z,5.60
2018-05-03T10:36:01.311Z,6.40
2018-05-03T10:37:01.266Z,6.30
2018-05-03T10:38:01.299Z,6.70
2018-05-03T10:39:01.279Z,5.30
2018-05-03T10:40:01.678Z,9.10
2018-05-03T10:41:01.353Z,5.30
2018-05-03T10:42:01.441Z,6.10
2018-05-03T10:43:01.323Z,4.50
2018-05-03T10:44:01.355Z,5.30
2018-05-03T10:45:01.356Z,5.00
2018-05-03T10:46:01.382Z,5.40
2018-05-03T10:47:01.436Z,6.90
2018-05-03T10:48:01.408Z,5.60
2018-05-03T10:49:01.516Z,5.70
2018-05-03T10:50:01.424Z,7.50
2018-05-03T10:51:01.473Z,5.50
2018-05-03T10:52:01.456Z,4.60
2018-05-03T10:53:01.455Z,6.50
2018-05-03T10:54:01.479Z,5.60
2018-05-03T10:55:01.498Z,5.60
2018-05-03T10:56:01.678Z,4.70
2018-05-03T10:57:01.561Z,5.90
2018-05-03T10:58:01.536Z,5.50
2018-05-03T10:59:01.538Z,7.20
2018-05-03T11:00:01.558Z,6.70
2018-05-03T11:01:01.563Z,6.50
2018-05-03T11:02:01.584Z,5.70
2018-05-03T11:03:01.596Z,5.80
2018-05-03T11:04:01.608Z,6.00
2018-05-03T11:05:01.615Z,6.80
2018-05-03T11:06:01.627Z,6.00
2018-05-03T11:07:01.639Z,7.50
2018-05-03T11:08:01.655Z,5.60
2018-05-03T11:09:01.666Z,6.90
2018-05-03T11:10:01.669Z,8.30
2018-05-03T11:11:01.861Z,6.20
2018-05-03T11:12:01.724Z,6.20
2018-05-03T11:13:01.747Z,5.90
2018-05-03T11:14:01.714Z,6.00
2018-05-03T11:15:01.718Z,5.80
2018-05-03T11:16:01.736Z,7.40
2018-05-03T11:17:01.745Z,5.80
2018-05-03T11:18:01.751Z,5.40
2018-05-03T11:19:01.761Z,5.30
2018-05-03T11:20:01.771Z,6.50
2018-05-03T11:21:01.772Z,8.10
2018-05-03T11:22:01.840Z,6.20
2018-05-03T11:23:01.823Z,6.40
2018-05-03T11:24:01.860Z,6.00
2018-05-03T11:25:01.827Z,6.40
2018-05-03T11:26:01.909Z,6.40
2018-05-03T11:27:01.823Z,5.50
2018-05-03T11:28:01.882Z,6.50
2018-05-03T11:29:01.834Z,6.10
2018-05-03T11:30:01.861Z,6.80
2018-05-03T11:31:01.897Z,5.60
2018-05-03T11:32:01.878Z,3.80
2018-05-03T11:33:01.895Z,7.80
2018-05-03T11:34:01.947Z,5.60
2018-05-03T11:35:01.934Z,5.40
2018-05-03T11:36:01.965Z,6.40
2018-05-03T11:37:02.025Z,5.40
2018-05-03T11:38:01.900Z,6.80
2018-05-03T11:39:01.914Z,8.50
2018-05-03T11:40:02.008Z,7.80
2018-05-03T11:41:01.950Z,6.60
2018-05-03T11:42:01.957Z,7.40
2018-05-03T11:43:01.942Z,6.10
2018-05-03T11:44:02.551Z,8.20
2018-05-03T11:45:24.144Z,7.40
2018-05-03T11:46:03.048Z,9.40
2018-05-03T11:49:35.200Z,6.10
2018-05-03T11:50:35.120Z,7.50
2018-05-03T11:51:36.071Z,7.30
2018-05-03T11:52:35.157Z,7.20
2018-05-03T11:53:35.350Z,8.60
2018-05-03T11:54:35.168Z,7.30
2018-05-03T11:55:35.341Z,7.80
2018-05-03T11:56:35.144Z,6.70
2018-05-03T11:57:36.071Z,9.60
2018-05-03T11:58:36.072Z,7.40
2018-05-03T11:59:35.244Z,6.60
2018-05-03T12:00:35.187Z,7.40
2018-05-03T12:01:35.222Z,8.10
2018-05-03T12:02:35.211Z,8.80
2018-05-03T12:03:35.450Z,10.90
2018-05-03T12:04:35.267Z,10.70
2018-05-03T12:05:35.226Z,9.30
2018-05-03T12:06:35.220Z,6.20
2018-05-03T12:07:35.256Z,8.10
2018-05-03T12:08:35.352Z,9.60
2018-05-03T12:09:35.323Z,10.00
2018-05-03T12:10:35.290Z,6.90
2018-05-03T12:11:35.295Z,6.60
2018-05-03T12:12:35.286Z,6.30
2018-05-03T12:13:35.297Z,7.30
2018-05-03T12:14:35.275Z,7.00
2018-05-03T12:15:35.292Z,5.70
2018-05-03T12:16:35.415Z,7.70
2018-05-03T12:17:35.311Z,7.50
2018-05-03T12:18:35.315Z,6.10
2018-05-03T12:19:35.299Z,7.50
2018-05-03T12:20:35.309Z,10.50
2018-05-03T12:21:35.311Z,6.90
2018-05-03T12:22:35.353Z,7.00
2018-05-03T12:23:35.338Z,5.70
2018-05-03T12:24:35.356Z,7.10
2018-05-03T12:25:35.408Z,9.00
2018-05-03T12:26:35.409Z,6.70
2018-05-03T12:27:35.336Z,6.40
2018-05-03T12:28:35.394Z,5.90
2018-05-03T12:29:35.396Z,7.30
2018-05-03T12:30:35.389Z,7.90
2018-05-03T12:31:35.387Z,7.20
2018-05-03T12:32:35.411Z,7.30
2018-05-03T12:33:35.520Z,7.80
2018-05-03T12:34:36.364Z,7.80
2018-05-03T12:35:35.393Z,6.10
2018-05-03T12:36:35.412Z,7.60
2018-05-03T12:37:35.431Z,7.50
2018-05-03T12:38:35.447Z,6.70
2018-05-03T12:39:35.432Z,5.80
2018-05-03T12:40:35.443Z,5.40
2018-05-03T12:41:35.432Z,7.30
2018-05-03T12:42:35.434Z,8.00
2018-05-03T12:43:35.462Z,7.10
2018-05-03T12:44:35.502Z,13.20
2018-05-03T12:45:35.442Z,10.70
2018-05-03T12:46:35.512Z,8.10
2018-05-03T12:47:35.454Z,7.00
2018-05-03T12:48:35.461Z,6.80
2018-05-03T12:49:35.589Z,7.80
2018-05-03T12:50:35.492Z,6.50
2018-05-03T12:51:35.517Z,6.10
2018-05-03T12:52:35.523Z,6.70
2018-05-03T12:53:35.511Z,7.10
2018-05-03T12:54:36.365Z,6.60
2018-05-03T12:55:35.577Z,6.60
2018-05-03T12:56:35.504Z,7.30
2018-05-03T12:57:36.103Z,7.20
2018-05-03T12:58:35.517Z,6.60
2018-05-03T12:59:35.628Z,7.10
2018-05-03T13:00:37.977Z,5.90
2018-05-03T13:01:35.529Z,7.60
2018-05-03T13:02:37.315Z,8.60
2018-05-03T13:03:35.746Z,9.70
2018-05-03T13:04:35.595Z,5.20
2018-05-03T13:05:35.589Z,7.60
2018-05-03T13:06:35.568Z,8.20
2018-05-03T13:07:35.848Z,8.20
2018-05-03T13:08:35.577Z,7.70
2018-05-03T13:09:35.572Z,6.00
2018-05-03T13:10:35.603Z,8.00
2018-05-03T13:11:35.576Z,6.40
2018-05-03T13:12:35.586Z,11.50